Terminal Aerodrome Forecast
Issued by NWS

Home | Current Version | Previous Version | Text Only | Print | Product List | Glossary Off
Versions: 1 2 3 4 5 6 7 8 9 10 11 12 13 14 15 16 17 18

000
FTUS43 KICT 191700
TAFHUT
TAF
KHUT 191736Z 1918/2018 18027G36KT P6SM BKN250
     FM200100 16012KT P6SM BKN200
     FM201500 19016KT P6SM SCT060 BKN150=

USA.gov is the U.S. government's official web portal to all federal, state and local government web resources and services.